createdAt,value
2018-10-17T00:01:56.224Z,13.70
2018-10-17T00:04:24.383Z,15.67
2018-10-17T00:06:52.602Z,12.87
2018-10-17T00:09:20.779Z,16.37
2018-10-17T00:11:48.952Z,16.00
2018-10-17T00:14:17.133Z,16.20
2018-10-17T00:16:45.346Z,17.70
2018-10-17T00:19:13.638Z,14.50
2018-10-17T00:21:41.760Z,16.57
2018-10-17T00:24:10.045Z,16.27
2018-10-17T00:26:38.254Z,16.30
2018-10-17T00:29:06.625Z,17.00
2018-10-17T00:31:34.739Z,17.20
2018-10-17T00:34:03.048Z,15.67
2018-10-17T00:36:31.227Z,15.13
2018-10-17T00:38:59.564Z,18.23
2018-10-17T00:41:27.757Z,17.97
2018-10-17T00:43:55.932Z,16.80
2018-10-17T00:46:24.111Z,18.10
2018-10-17T00:48:52.276Z,18.93
2018-10-17T00:51:20.454Z,19.07
2018-10-17T00:53:48.671Z,19.37
2018-10-17T00:56:16.871Z,19.13
2018-10-17T00:58:56.447Z,18.77
2018-10-17T01:01:24.549Z,20.60
2018-10-17T01:03:52.752Z,21.87
2018-10-17T01:06:20.920Z,16.70
2018-10-17T01:08:49.454Z,17.97
2018-10-17T01:11:17.656Z,18.07
2018-10-17T01:13:45.840Z,19.00
2018-10-17T01:16:14.061Z,18.40
2018-10-17T01:18:42.220Z,27.73
2018-10-17T01:21:10.451Z,19.73
2018-10-17T01:23:38.728Z,19.70
2018-10-17T01:26:06.963Z,20.97
2018-10-17T01:28:35.258Z,19.70
2018-10-17T01:31:03.551Z,22.30
2018-10-17T01:33:31.675Z,21.20
2018-10-17T01:35:59.993Z,19.17
2018-10-17T01:38:28.188Z,14.53
2018-10-17T01:40:56.365Z,18.20
2018-10-17T01:43:24.588Z,19.60
2018-10-17T01:45:52.771Z,19.00
2018-10-17T01:48:21.060Z,18.27
2018-10-17T01:50:49.358Z,21.73
2018-10-17T01:53:17.565Z,18.80
2018-10-17T01:55:45.743Z,19.97
2018-10-17T01:58:13.940Z,22.13
2018-10-17T02:00:42.162Z,18.17
2018-10-17T02:03:10.335Z,22.60
2018-10-17T02:05:38.562Z,21.27
2018-10-17T02:08:06.780Z,20.80
2018-10-17T02:10:34.946Z,19.50
2018-10-17T02:13:03.514Z,22.77
2018-10-17T02:15:31.627Z,16.53
2018-10-17T02:17:59.817Z,21.30
2018-10-17T02:20:27.980Z,20.50
2018-10-17T02:22:56.725Z,25.80
2018-10-17T02:25:24.905Z,20.73
2018-10-17T02:27:53.129Z,21.77
2018-10-17T02:30:21.555Z,21.10
2018-10-17T02:32:49.776Z,23.57
2018-10-17T02:35:18.941Z,23.63
2018-10-17T02:37:47.463Z,22.20
2018-10-17T02:40:15.645Z,27.27
2018-10-17T02:42:43.898Z,23.73
2018-10-17T02:45:13.459Z,27.13
2018-10-17T02:47:41.663Z,26.17
2018-10-17T02:50:10.875Z,23.93
2018-10-17T02:52:40.390Z,23.73
2018-10-17T02:55:08.896Z,29.80
2018-10-17T02:57:37.663Z,24.03
2018-10-17T03:00:07.165Z,28.00
2018-10-17T03:02:35.360Z,25.97
2018-10-17T03:05:03.543Z,29.03
2018-10-17T03:07:31.741Z,31.90
2018-10-17T03:10:00.089Z,27.07
2018-10-17T03:12:28.313Z,30.50
2018-10-17T03:14:56.535Z,21.67
2018-10-17T03:17:24.700Z,26.13
2018-10-17T03:19:52.901Z,25.20
2018-10-17T03:22:21.057Z,28.40
2018-10-17T03:24:49.251Z,26.07
2018-10-17T03:27:17.398Z,23.87
2018-10-17T03:29:45.601Z,29.87
2018-10-17T03:32:13.765Z,27.73
2018-10-17T03:34:41.930Z,24.17
2018-10-17T03:37:10.177Z,25.33
2018-10-17T03:39:38.301Z,24.30
2018-10-17T03:42:06.503Z,29.40
2018-10-17T03:44:34.715Z,31.60
2018-10-17T03:47:03.015Z,35.70
2018-10-17T03:49:31.197Z,29.23
2018-10-17T03:51:59.431Z,25.83
2018-10-17T03:54:27.622Z,27.00
2018-10-17T03:56:55.797Z,28.70
2018-10-17T03:59:24.138Z,29.30
2018-10-17T04:01:52.264Z,23.63
2018-10-17T04:04:20.449Z,24.83
2018-10-17T04:06:48.621Z,27.50
2018-10-17T04:09:16.843Z,28.33
2018-10-17T04:11:45.023Z,30.27
2018-10-17T04:14:13.197Z,23.40
2018-10-17T04:16:41.391Z,25.40
2018-10-17T04:19:09.616Z,25.63
2018-10-17T04:21:37.753Z,32.23
2018-10-17T04:24:06.125Z,26.23
2018-10-17T04:26:34.431Z,28.07
2018-10-17T04:29:02.678Z,25.13
2018-10-17T04:31:30.880Z,30.03
2018-10-17T04:34:00.060Z,26.33
2018-10-17T04:36:28.279Z,28.77
2018-10-17T04:38:56.469Z,34.13
2018-10-17T04:41:24.666Z,33.93
2018-10-17T04:43:52.928Z,35.60
2018-10-17T04:46:21.118Z,31.17
2018-10-17T04:48:49.263Z,28.43
2018-10-17T04:51:17.457Z,26.47
2018-10-17T04:53:45.605Z,30.40
2018-10-17T04:56:13.789Z,28.80
2018-10-17T04:58:41.970Z,31.83
2018-10-17T05:01:10.212Z,35.40
2018-10-17T05:03:38.466Z,35.37
2018-10-17T05:06:06.685Z,29.60
2018-10-17T05:08:34.870Z,32.27
2018-10-17T05:11:03.111Z,32.60
2018-10-17T05:13:31.289Z,37.90
2018-10-17T05:15:59.479Z,28.33
2018-10-17T05:18:27.721Z,32.73
2018-10-17T05:20:55.951Z,29.57
2018-10-17T05:23:24.132Z,36.13
2018-10-17T05:25:52.313Z,30.07
2018-10-17T05:28:20.501Z,31.70
2018-10-17T05:30:48.723Z,31.90
2018-10-17T05:33:16.887Z,33.60
2018-10-17T05:35:45.185Z,35.00
2018-10-17T05:38:13.344Z,45.30
2018-10-17T05:40:41.412Z,36.67
2018-10-17T05:43:09.655Z,32.70
2018-10-17T05:45:37.776Z,31.37
2018-10-17T05:48:05.973Z,29.40
2018-10-17T05:50:34.173Z,38.80
2018-10-17T05:53:02.608Z,35.50
2018-10-17T05:55:30.801Z,39.87
2018-10-17T05:57:58.993Z,35.90
2018-10-17T06:00:27.218Z,37.70
2018-10-17T06:02:55.412Z,35.37
2018-10-17T06:05:23.596Z,36.33
2018-10-17T06:07:51.585Z,35.43
2018-10-17T06:10:19.851Z,28.40
2018-10-17T06:12:48.009Z,32.70
2018-10-17T06:15:16.183Z,44.10
2018-10-17T06:17:44.415Z,37.00
2018-10-17T06:20:12.614Z,36.60
2018-10-17T06:22:42.392Z,32.17
2018-10-17T06:25:10.897Z,31.60
2018-10-17T06:27:39.053Z,34.27
2018-10-17T06:30:08.612Z,33.30
2018-10-17T06:32:36.855Z,38.87
2018-10-17T06:35:05.962Z,34.60
2018-10-17T06:37:34.500Z,37.27
2018-10-17T06:40:02.738Z,30.87
2018-10-17T06:42:30.962Z,30.37
2018-10-17T06:44:59.202Z,31.10
2018-10-17T06:47:27.436Z,39.57
2018-10-17T06:49:55.618Z,28.97
2018-10-17T06:52:23.857Z,34.93
2018-10-17T06:54:52.046Z,32.77
2018-10-17T06:57:20.255Z,32.57
2018-10-17T06:59:48.465Z,32.47
2018-10-17T07:02:16.745Z,37.73
2018-10-17T07:04:44.847Z,36.33
2018-10-17T07:07:13.101Z,39.00
2018-10-17T07:09:41.274Z,37.90
2018-10-17T07:12:09.415Z,36.33
2018-10-17T07:14:37.612Z,32.80
2018-10-17T07:17:06.012Z,31.40
2018-10-17T07:19:34.221Z,31.30
2018-10-17T07:22:02.451Z,28.57
2018-10-17T07:24:30.640Z,30.03
2018-10-17T07:26:58.861Z,28.73
2018-10-17T07:29:27.196Z,38.97
2018-10-17T07:31:55.328Z,38.03
2018-10-17T07:34:23.615Z,31.17
2018-10-17T07:36:52.704Z,34.67
2018-10-17T07:39:21.050Z,31.30
2018-10-17T07:41:49.972Z,31.30
2018-10-17T07:44:18.156Z,31.50
2018-10-17T07:46:46.316Z,31.27
2018-10-17T07:49:14.532Z,29.40
2018-10-17T07:51:42.712Z,29.17
2018-10-17T07:54:10.962Z,29.30
2018-10-17T07:56:41.157Z,31.30
2018-10-17T07:59:09.424Z,34.60
2018-10-17T08:01:37.737Z,25.50
2018-10-17T08:04:06.272Z,31.57
2018-10-17T08:06:34.567Z,29.50
2018-10-17T08:09:02.863Z,32.20
2018-10-17T08:11:31.317Z,30.47
2018-10-17T08:13:59.649Z,26.97
2018-10-17T08:16:27.914Z,27.17
2018-10-17T08:18:56.460Z,29.40
2018-10-17T08:21:24.730Z,50.80
2018-10-17T08:23:53.298Z,43.70
2018-10-17T08:26:21.869Z,26.60
2018-10-17T08:28:50.058Z,25.90
2018-10-17T08:31:18.203Z,31.00
2018-10-17T08:33:46.367Z,23.03
2018-10-17T08:36:14.778Z,23.90
2018-10-17T08:38:42.740Z,26.20
2018-10-17T08:41:11.091Z,26.03
2018-10-17T08:43:39.134Z,23.77
2018-10-17T08:46:07.332Z,28.57
2018-10-17T08:48:35.532Z,27.10
2018-10-17T08:51:03.852Z,25.90
2018-10-17T08:53:32.098Z,24.60
2018-10-17T08:56:00.353Z,30.40
2018-10-17T08:58:28.456Z,29.90
2018-10-17T09:00:56.721Z,29.13
2018-10-17T09:03:25.969Z,25.47
2018-10-17T09:05:54.240Z,25.80
2018-10-17T09:08:22.445Z,35.27
2018-10-17T09:10:50.532Z,26.97
2018-10-17T09:13:18.781Z,30.80
2018-10-17T09:15:47.097Z,24.53
2018-10-17T09:18:15.611Z,31.70
2018-10-17T09:20:43.957Z,23.50
2018-10-17T09:23:12.023Z,30.73
2018-10-17T09:25:40.313Z,21.23
2018-10-17T09:28:08.437Z,27.60
2018-10-17T09:30:36.630Z,24.07
2018-10-17T09:33:04.960Z,23.97
2018-10-17T09:35:33.162Z,27.00
2018-10-17T09:38:01.395Z,24.87
2018-10-17T09:40:29.618Z,25.40
2018-10-17T09:42:57.803Z,27.37
2018-10-17T09:45:26.018Z,28.93
2018-10-17T09:47:54.195Z,29.17
2018-10-17T09:50:22.372Z,35.20
2018-10-17T09:52:50.610Z,29.43
2018-10-17T09:55:18.849Z,23.93
2018-10-17T09:57:46.998Z,23.63
2018-10-17T10:00:20.697Z,22.53
2018-10-17T10:02:50.049Z,26.10
2018-10-17T10:05:18.343Z,23.83
2018-10-17T10:07:46.516Z,24.40
2018-10-17T10:10:14.813Z,22.00
2018-10-17T10:12:42.964Z,25.90
2018-10-17T10:15:11.221Z,25.47
2018-10-17T10:17:39.461Z,29.27
2018-10-17T10:20:07.585Z,28.27
2018-10-17T10:22:35.748Z,20.03
2018-10-17T10:25:04.107Z,22.67
2018-10-17T10:27:32.220Z,23.67
2018-10-17T10:30:00.500Z,23.53
2018-10-17T10:32:28.597Z,21.60
2018-10-17T10:34:56.765Z,18.10
2018-10-17T10:37:24.945Z,22.73
2018-10-17T10:39:53.119Z,22.00
2018-10-17T10:42:21.555Z,24.03
2018-10-17T10:44:49.762Z,23.57
2018-10-17T10:47:17.965Z,21.33
2018-10-17T10:49:46.133Z,21.30
2018-10-17T10:52:14.302Z,19.10
2018-10-17T10:54:42.452Z,19.00
2018-10-17T10:57:10.748Z,20.70
2018-10-17T10:59:38.998Z,16.97
2018-10-17T11:02:07.167Z,17.03
2018-10-17T11:04:35.406Z,20.50
2018-10-17T11:07:03.760Z,23.90
2018-10-17T11:09:31.940Z,20.87
2018-10-17T11:12:00.093Z,18.00
2018-10-17T11:14:28.275Z,19.27
2018-10-17T11:16:56.521Z,16.90
2018-10-17T11:19:24.554Z,20.00
2018-10-17T11:21:52.808Z,24.40
2018-10-17T11:24:20.928Z,13.80
2018-10-17T11:26:49.084Z,26.00
2018-10-17T11:29:17.301Z,16.80
2018-10-17T11:31:45.496Z,18.77
2018-10-17T11:34:13.637Z,17.80
2018-10-17T11:36:41.796Z,20.10
2018-10-17T11:39:10.760Z,21.40
2018-10-17T11:41:39.209Z,14.47
2018-10-17T11:44:07.216Z,22.43
2018-10-17T11:46:35.725Z,17.90
2018-10-17T11:49:04.273Z,18.23
2018-10-17T11:51:32.651Z,17.27
2018-10-17T11:54:00.840Z,18.97
2018-10-17T11:56:29.044Z,20.67
2018-10-17T11:58:57.439Z,16.17
2018-10-17T12:01:25.556Z,15.60
2018-10-17T12:03:53.871Z,25.47
2018-10-17T12:06:22.024Z,19.87
2018-10-17T12:08:50.303Z,19.60
2018-10-17T12:11:18.548Z,15.83
2018-10-17T12:13:46.676Z,15.87
2018-10-17T12:16:14.600Z,14.77
2018-10-17T12:18:42.756Z,17.93
2018-10-17T12:21:11.033Z,13.47
2018-10-17T12:23:39.132Z,15.23
2018-10-17T12:26:07.273Z,15.70
2018-10-17T12:28:35.664Z,11.37
2018-10-17T12:31:03.762Z,17.63
2018-10-17T12:33:32.020Z,13.10
2018-10-17T12:36:00.276Z,17.37
2018-10-17T12:38:28.469Z,20.40
2018-10-17T12:40:56.909Z,16.23
2018-10-17T12:43:24.907Z,11.80
2018-10-17T12:45:53.097Z,14.40
2018-10-17T12:48:21.273Z,15.60
2018-10-17T12:50:49.663Z,14.77
2018-10-17T12:53:17.961Z,17.37
2018-10-17T12:55:46.140Z,13.80
2018-10-17T12:58:14.463Z,13.50
2018-10-17T13:00:42.613Z,16.83
2018-10-17T13:03:10.809Z,11.90
2018-10-17T13:05:38.973Z,18.20
2018-10-17T13:08:07.143Z,11.80
2018-10-17T13:10:35.294Z,14.80
2018-10-17T13:13:03.536Z,11.80
2018-10-17T13:15:31.645Z,13.13
2018-10-17T13:17:59.836Z,14.20
2018-10-17T13:20:28.006Z,11.53
2018-10-17T13:22:56.265Z,12.43
2018-10-17T13:25:24.381Z,10.77
2018-10-17T13:27:52.604Z,13.23
2018-10-17T13:30:20.741Z,12.90
2018-10-17T13:32:48.924Z,12.40
2018-10-17T13:35:17.143Z,11.00
2018-10-17T13:37:45.286Z,12.40
2018-10-17T13:40:13.883Z,12.50
2018-10-17T13:42:42.084Z,9.90
2018-10-17T13:45:10.365Z,8.67
2018-10-17T13:47:38.563Z,9.17
2018-10-17T13:50:06.894Z,9.97
2018-10-17T13:52:35.089Z,10.63
2018-10-17T13:55:03.262Z,11.90
2018-10-17T13:57:31.440Z,10.60
2018-10-17T13:59:59.605Z,11.43
2018-10-17T14:02:27.814Z,10.13
2018-10-17T14:04:56.084Z,13.67
2018-10-17T14:07:24.296Z,10.40
2018-10-17T14:09:52.665Z,11.87
2018-10-17T14:12:20.839Z,7.63
2018-10-17T14:14:48.983Z,10.73
2018-10-17T14:17:17.157Z,13.73
2018-10-17T14:19:45.347Z,9.77
2018-10-17T14:22:13.529Z,14.20
2018-10-17T14:24:41.724Z,9.10
2018-10-17T14:27:09.927Z,9.83
2018-10-17T14:29:38.156Z,16.93
2018-10-17T14:32:06.371Z,8.40
2018-10-17T14:34:34.716Z,7.83
2018-10-17T14:37:02.942Z,9.37
2018-10-17T14:39:31.331Z,7.20
2018-10-17T14:41:59.312Z,8.63
2018-10-17T14:44:27.516Z,10.13
2018-10-17T14:46:55.705Z,9.57
2018-10-17T14:49:23.973Z,7.73
2018-10-17T14:51:52.139Z,9.37
2018-10-17T14:54:20.296Z,9.00
2018-10-17T14:56:48.457Z,8.10
2018-10-17T14:59:16.653Z,12.90
2018-10-17T15:01:44.797Z,10.17
2018-10-17T15:04:13.048Z,7.27
2018-10-17T15:06:41.221Z,10.27
2018-10-17T15:09:09.962Z,7.53
2018-10-17T15:11:39.263Z,15.50
2018-10-17T15:14:07.422Z,11.20
2018-10-17T15:16:35.594Z,7.53
2018-10-17T15:19:03.956Z,14.83
2018-10-17T15:21:32.640Z,16.10
2018-10-17T15:24:00.859Z,13.90
2018-10-17T15:26:28.978Z,12.03
2018-10-17T15:28:57.172Z,14.63
2018-10-17T15:31:25.464Z,18.53
2018-10-17T15:33:53.528Z,13.17
2018-10-17T15:36:21.675Z,9.97
2018-10-17T15:38:49.812Z,11.60
2018-10-17T15:41:17.966Z,14.40
2018-10-17T15:43:46.226Z,10.07
2018-10-17T15:46:14.365Z,9.37
2018-10-17T15:48:42.516Z,9.80
2018-10-17T15:51:10.736Z,10.00
2018-10-17T15:53:38.950Z,10.67
2018-10-17T15:56:07.140Z,8.77
2018-10-17T15:58:35.325Z,11.73
2018-10-17T16:01:03.667Z,12.80
2018-10-17T16:03:31.756Z,12.83
2018-10-17T16:05:59.978Z,9.00
2018-10-17T16:08:28.158Z,10.17
2018-10-17T16:10:56.323Z,11.73
2018-10-17T16:13:24.628Z,9.07
2018-10-17T16:15:52.852Z,9.07
2018-10-17T16:18:21.121Z,10.70
2018-10-17T16:20:49.316Z,17.67
2018-10-17T16:23:17.567Z,16.37
2018-10-17T16:25:45.648Z,13.07
2018-10-17T16:28:13.810Z,11.83
2018-10-17T16:30:42.090Z,13.90
2018-10-17T16:33:10.146Z,15.97
2018-10-17T16:35:38.315Z,26.10
2018-10-17T16:38:06.479Z,19.93
2018-10-17T16:40:34.642Z,11.57
2018-10-17T16:43:02.803Z,13.00
2018-10-17T16:45:30.948Z,8.83
2018-10-17T16:47:59.183Z,10.03
2018-10-17T16:50:27.831Z,10.00
2018-10-17T16:52:55.896Z,17.83
2018-10-17T16:55:24.093Z,11.40
2018-10-17T16:57:52.247Z,11.50
2018-10-17T17:00:20.382Z,8.60
2018-10-17T17:02:48.524Z,13.60
2018-10-17T17:05:16.716Z,9.50
2018-10-17T17:07:44.610Z,10.93
2018-10-17T17:10:13.656Z,10.73
2018-10-17T17:12:41.845Z,11.63
2018-10-17T17:15:10.363Z,15.03
2018-10-17T17:17:38.562Z,15.90
2018-10-17T17:20:08.438Z,12.77
2018-10-17T17:22:36.738Z,12.40
2018-10-17T17:25:05.030Z,9.70
2018-10-17T17:27:33.246Z,17.73
2018-10-17T17:30:01.483Z,9.07
2018-10-17T17:32:29.585Z,11.07
2018-10-17T17:34:57.752Z,10.50
2018-10-17T17:37:25.922Z,9.33
2018-10-17T17:39:54.055Z,13.10
2018-10-17T17:42:22.238Z,14.30
2018-10-17T17:44:50.413Z,18.40
2018-10-17T17:47:18.608Z,14.87
2018-10-17T17:49:46.809Z,12.43
2018-10-17T17:52:15.000Z,16.63
2018-10-17T17:54:43.174Z,20.13
2018-10-17T17:57:11.340Z,14.63
2018-10-17T17:59:39.510Z,13.50
2018-10-17T18:02:07.742Z,9.10
2018-10-17T18:04:35.923Z,18.17
2018-10-17T18:07:04.098Z,14.57
2018-10-17T18:09:32.257Z,13.17
2018-10-17T18:12:00.438Z,18.00
2018-10-17T18:14:28.816Z,19.43
2018-10-17T18:16:56.988Z,16.40
2018-10-17T18:19:25.232Z,14.40
2018-10-17T18:21:53.471Z,13.87
2018-10-17T18:24:21.613Z,11.53
2018-10-17T18:26:49.792Z,13.73
2018-10-17T18:29:17.955Z,13.00
2018-10-17T18:31:46.118Z,13.03
2018-10-17T18:34:14.373Z,11.50
2018-10-17T18:36:42.548Z,12.20
2018-10-17T18:39:10.737Z,11.60
2018-10-17T18:41:38.881Z,10.13
2018-10-17T18:44:07.043Z,16.83
2018-10-17T18:46:35.248Z,13.90
2018-10-17T18:49:03.503Z,13.23
2018-10-17T18:51:31.921Z,15.73
2018-10-17T18:54:00.081Z,11.60
2018-10-17T18:56:28.264Z,12.87
2018-10-17T18:58:56.425Z,11.43
2018-10-17T19:01:24.662Z,15.33
2018-10-17T19:03:52.840Z,16.23
2018-10-17T19:06:21.120Z,16.50
2018-10-17T19:08:49.345Z,16.77
2018-10-17T19:11:17.518Z,12.60
2018-10-17T19:13:45.701Z,15.37
2018-10-17T19:16:14.051Z,15.40
2018-10-17T19:18:42.116Z,16.00
2018-10-17T19:21:10.422Z,16.07
2018-10-17T19:23:38.507Z,18.50
2018-10-17T19:26:06.710Z,13.23
2018-10-17T19:28:35.083Z,18.97
2018-10-17T19:31:03.393Z,16.77
2018-10-17T19:33:31.319Z,13.33
2018-10-17T19:35:59.533Z,14.47
2018-10-17T19:38:27.674Z,13.67
2018-10-17T19:40:55.873Z,16.50
2018-10-17T19:43:24.077Z,20.13
2018-10-17T19:45:52.276Z,15.97
2018-10-17T19:48:20.509Z,14.30
2018-10-17T19:50:48.664Z,15.40
2018-10-17T19:53:16.829Z,13.90
2018-10-17T19:55:45.181Z,12.80
2018-10-17T19:58:13.337Z,14.57
2018-10-17T20:00:41.504Z,18.87
2018-10-17T20:03:09.797Z,15.97
2018-10-17T20:05:37.899Z,13.80
2018-10-17T20:08:06.120Z,13.57
2018-10-17T20:10:34.263Z,12.47
2018-10-17T20:13:02.497Z,15.63
2018-10-17T20:15:30.671Z,13.83
2018-10-17T20:17:58.887Z,14.10
2018-10-17T20:20:27.038Z,14.20
2018-10-17T20:22:55.268Z,22.50
2018-10-17T20:25:23.436Z,14.93
2018-10-17T20:27:51.613Z,19.50
2018-10-17T20:30:19.788Z,20.03
2018-10-17T20:32:48.055Z,16.33
2018-10-17T20:35:16.309Z,19.90
2018-10-17T20:37:44.451Z,16.00
2018-10-17T20:40:12.645Z,17.67
2018-10-17T20:42:40.827Z,14.50
2018-10-17T20:45:09.005Z,18.03
2018-10-17T20:47:37.180Z,20.27
2018-10-17T20:50:06.346Z,17.33
2018-10-17T20:52:34.456Z,18.13
2018-10-17T20:55:02.628Z,13.43
2018-10-17T20:57:30.790Z,15.60
2018-10-17T20:59:59.294Z,17.53
2018-10-17T21:02:27.580Z,23.97
2018-10-17T21:04:55.670Z,17.00
2018-10-17T21:07:23.893Z,17.10
2018-10-17T21:09:52.097Z,15.33
2018-10-17T21:12:20.275Z,17.37
2018-10-17T21:14:48.511Z,15.50
2018-10-17T21:17:16.699Z,18.57
2018-10-17T21:19:44.870Z,22.50
2018-10-17T21:22:13.061Z,20.20
2018-10-17T21:24:41.248Z,14.67
2018-10-17T21:27:09.437Z,16.23
2018-10-17T21:29:37.620Z,20.60
2018-10-17T21:32:06.187Z,13.93
2018-10-17T21:34:34.266Z,19.60
2018-10-17T21:37:02.440Z,27.47
2018-10-17T21:39:30.632Z,20.20
2018-10-17T21:41:58.772Z,16.80
2018-10-17T21:44:26.984Z,24.50
2018-10-17T21:46:55.159Z,21.17
2018-10-17T21:49:23.321Z,18.70
2018-10-17T21:51:51.581Z,20.87
2018-10-17T21:54:19.773Z,25.83
2018-10-17T21:56:47.925Z,17.93
2018-10-17T21:59:16.108Z,21.23
2018-10-17T22:01:44.275Z,18.57
2018-10-17T22:04:12.473Z,20.73
2018-10-17T22:06:40.661Z,17.90
2018-10-17T22:09:09.913Z,17.70
2018-10-17T22:11:38.152Z,34.23
2018-10-17T22:14:06.386Z,18.40
2018-10-17T22:16:40.007Z,18.60
2018-10-17T22:19:08.359Z,20.77
2018-10-17T22:21:36.396Z,29.33
2018-10-17T22:24:04.856Z,22.60
2018-10-17T22:26:33.064Z,55.67
2018-10-17T22:29:01.215Z,23.47
2018-10-17T22:31:29.436Z,26.50
2018-10-17T22:33:57.622Z,27.90
2018-10-17T22:36:25.789Z,26.23
2018-10-17T22:38:54.005Z,20.40
2018-10-17T22:41:22.296Z,22.13
2018-10-17T22:43:50.371Z,19.90
2018-10-17T22:46:18.531Z,18.67
2018-10-17T22:48:46.709Z,20.43
2018-10-17T22:51:14.887Z,20.13
2018-10-17T22:53:43.057Z,19.40
2018-10-17T22:56:11.317Z,21.40
2018-10-17T22:58:39.383Z,17.77
2018-10-17T23:01:07.659Z,19.67
2018-10-17T23:03:35.840Z,13.13
2018-10-17T23:06:04.009Z,16.90
2018-10-17T23:08:32.200Z,22.23
2018-10-17T23:11:00.372Z,18.60
2018-10-17T23:13:28.576Z,21.53
2018-10-17T23:15:56.795Z,18.10
2018-10-17T23:18:24.984Z,48.90
2018-10-17T23:20:53.174Z,30.57
2018-10-17T23:23:21.352Z,22.93
2018-10-17T23:25:49.542Z,23.07
2018-10-17T23:28:17.773Z,26.33
2018-10-17T23:30:45.935Z,19.50
2018-10-17T23:33:14.119Z,23.80
2018-10-17T23:35:42.298Z,18.80
2018-10-17T23:38:10.525Z,21.20
2018-10-17T23:40:38.637Z,17.80
2018-10-17T23:43:07.400Z,20.70
2018-10-17T23:45:35.581Z,17.53
2018-10-17T23:48:03.939Z,22.60
2018-10-17T23:50:32.097Z,19.70
2018-10-17T23:53:00.272Z,18.57
2018-10-17T23:55:28.459Z,23.30
2018-10-17T23:57:56.621Z,21.50
